Terminal Aerodrome Forecast
Issued by NWS

Home | Current Version | Previous Version | Text Only | Print | Product List | Glossary On
Versions: 1 2 3 4 5 6 7 8 9 10 11 12 13 14 15 16 17 18 19 20 21 22 23 24 25 26 27 28 29 30 31 32 33 34 35 36
574
FTUS43 KDDC 211720
TAFHYS
TAF
KHYS 211720Z 2118/2218 36008KT 1SM BR OVC003
     FM211900 03009KT 3/4SM BR VCSH OVC003
     FM212200 01011KT 1SM -RA BR OVC003
     FM220000 33014KT 1 1/2SM -SN BLSN OVC003
     FM220500 33020G29KT 1 1/2SM -SN BLSN OVC003
     FM221100 33024G34KT 1SM BLSN VCSH OVC010
     FM221700 33027G35KT P6SM BKN035=

USA.gov is the U.S. government's official web portal to all federal, state and local government web resources and services.